sensor_id;sensor_type;location;lat;lon;timestamp;P1;durP1;ratioP1;P2;durP2;ratioP2
53618;SDS011;68717;53.040;18.488;2024-03-08T00:00:05;92.75;;;47.20;;
53618;SDS011;68717;53.040;18.488;2024-03-08T00:00:22;92.78;;;47.50;;
53618;SDS011;68717;53.040;18.488;2024-03-08T00:00:56;98.00;;;48.22;;
53618;SDS011;68717;53.040;18.488;2024-03-08T00:01:28;91.80;;;47.60;;
53618;SDS011;68717;53.040;18.488;2024-03-08T00:01:41;93.43;;;47.03;;
53618;SDS011;68717;53.040;18.488;2024-03-08T00:01:57;93.30;;;47.80;;
53618;SDS011;68717;53.040;18.488;2024-03-08T00:02:10;93.90;;;49.40;;
53618;SDS011;68717;53.040;18.488;2024-03-08T00:02:25;96.00;;;49.33;;
53618;SDS011;68717;53.040;18.488;2024-03-08T00:02:39;95.90;;;48.85;;
53618;SDS011;68717;53.040;18.488;2024-03-08T00:02:52;93.70;;;48.45;;
53618;SDS011;68717;53.040;18.488;2024-03-08T00:03:06;93.72;;;48.05;;
53618;SDS011;68717;53.040;18.488;2024-03-08T00:03:19;92.00;;;47.35;;
53618;SDS011;68717;53.040;18.488;2024-03-08T00:03:32;89.68;;;46.63;;
53618;SDS011;68717;53.040;18.488;2024-03-08T00:03:46;92.22;;;46.83;;
53618;SDS011;68717;53.040;18.488;2024-03-08T00:03:59;92.45;;;47.15;;
53618;SDS011;68717;53.040;18.488;2024-03-08T00:04:12;91.80;;;47.05;;
53618;SDS011;68717;53.040;18.488;2024-03-08T00:04:28;92.75;;;47.03;;
53618;SDS011;68717;53.040;18.488;2024-03-08T00:04:41;93.38;;;47.00;;
53618;SDS011;68717;53.040;18.488;2024-03-08T00:04:54;93.32;;;46.88;;
53618;SDS011;68717;53.040;18.488;2024-03-08T00:05:08;95.22;;;47.13;;
53618;SDS011;68717;53.040;18.488;2024-03-08T00:05:21;92.05;;;46.78;;
53618;SDS011;68717;53.040;18.488;2024-03-08T00:05:34;89.85;;;46.28;;
53618;SDS011;68717;53.040;18.488;2024-03-08T00:05:48;89.05;;;46.30;;
53618;SDS011;68717;53.040;18.488;2024-03-08T00:06:01;88.15;;;46.70;;
53618;SDS011;68717;53.040;18.488;2024-03-08T00:06:14;88.38;;;46.88;;
53618;SDS011;68717;53.040;18.488;2024-03-08T00:06:29;89.97;;;46.47;;
53618;SDS011;68717;53.040;18.488;2024-03-08T00:06:42;91.57;;;46.92;;
53618;SDS011;68717;53.040;18.488;2024-03-08T00:06:58;92.85;;;47.70;;
53618;SDS011;68717;53.040;18.488;2024-03-08T00:07:11;90.97;;;46.80;;
53618;SDS011;68717;53.040;18.488;2024-03-08T00:07:25;92.38;;;46.20;;
53618;SDS011;68717;53.040;18.488;2024-03-08T00:07:40;93.82;;;46.45;;
53618;SDS011;68717;53.040;18.488;2024-03-08T00:07:54;95.78;;;46.45;;
53618;SDS011;68717;53.040;18.488;2024-03-08T00:08:07;93.15;;;46.25;;
53618;SDS011;68717;53.040;18.488;2024-03-08T00:08:23;91.47;;;46.15;;
53618;SDS011;68717;53.040;18.488;2024-03-08T00:08:36;91.22;;;46.50;;
53618;SDS011;68717;53.040;18.488;2024-03-08T00:08:49;87.63;;;46.22;;
53618;SDS011;68717;53.040;18.488;2024-03-08T00:09:03;85.82;;;45.45;;
53618;SDS011;68717;53.040;18.488;2024-03-08T00:09:16;87.80;;;45.10;;
53618;SDS011;68717;53.040;18.488;2024-03-08T00:09:29;89.03;;;44.97;;
53618;SDS011;68717;53.040;18.488;2024-03-08T00:09:43;87.85;;;44.92;;
53618;SDS011;68717;53.040;18.488;2024-03-08T00:09:56;86.90;;;44.88;;
53618;SDS011;68717;53.040;18.488;2024-03-08T00:10:10;88.72;;;45.65;;
53618;SDS011;68717;53.040;18.488;2024-03-08T00:10:27;87.15;;;45.35;;
53618;SDS011;68717;53.040;18.488;2024-03-08T00:10:41;87.25;;;44.08;;
53618;SDS011;68717;53.040;18.488;2024-03-08T00:10:54;87.03;;;44.10;;
53618;SDS011;68717;53.040;18.488;2024-03-08T00:11:07;85.50;;;44.15;;
53618;SDS011;68717;53.040;18.488;2024-03-08T00:11:20;88.20;;;44.30;;
53618;SDS011;68717;53.040;18.488;2024-03-08T00:11:34;87.72;;;43.88;;
53618;SDS011;68717;53.040;18.488;2024-03-08T00:11:47;84.95;;;43.70;;
53618;SDS011;68717;53.040;18.488;2024-03-08T00:12:02;82.72;;;43.33;;
53618;SDS011;68717;53.040;18.488;2024-03-08T00:12:16;82.50;;;43.10;;
53618;SDS011;68717;53.040;18.488;2024-03-08T00:12:30;83.80;;;43.13;;
53618;SDS011;68717;53.040;18.488;2024-03-08T00:12:43;82.38;;;42.83;;
53618;SDS011;68717;53.040;18.488;2024-03-08T00:12:59;82.07;;;42.08;;
53618;SDS011;68717;53.040;18.488;2024-03-08T00:13:12;80.82;;;41.15;;
53618;SDS011;68717;53.040;18.488;2024-03-08T00:13:25;79.22;;;40.95;;
53618;SDS011;68717;53.040;18.488;2024-03-08T00:13:38;80.32;;;41.60;;
53618;SDS011;68717;53.040;18.488;2024-03-08T00:13:51;80.75;;;41.55;;
53618;SDS011;68717;53.040;18.488;2024-03-08T00:14:06;77.85;;;40.97;;
53618;SDS011;68717;53.040;18.488;2024-03-08T00:15:59;76.28;;;40.00;;
53618;SDS011;68717;53.040;18.488;2024-03-08T00:16:12;77.38;;;39.75;;
53618;SDS011;68717;53.040;18.488;2024-03-08T00:16:25;77.95;;;40.15;;
53618;SDS011;68717;53.040;18.488;2024-03-08T00:16:38;77.88;;;40.65;;
53618;SDS011;68717;53.040;18.488;2024-03-08T00:16:54;76.53;;;40.42;;
53618;SDS011;68717;53.040;18.488;2024-03-08T00:17:07;78.32;;;40.55;;
53618;SDS011;68717;53.040;18.488;2024-03-08T00:17:21;78.50;;;39.95;;
53618;SDS011;68717;53.040;18.488;2024-03-08T00:17:35;76.20;;;39.28;;
53618;SDS011;68717;53.040;18.488;2024-03-08T00:17:48;75.90;;;39.38;;
53618;SDS011;68717;53.040;18.488;2024-03-08T00:18:03;74.13;;;39.22;;
53618;SDS011;68717;53.040;18.488;2024-03-08T00:18:16;74.80;;;39.47;;
53618;SDS011;68717;53.040;18.488;2024-03-08T00:18:30;76.43;;;38.83;;
53618;SDS011;68717;53.040;18.488;2024-03-08T00:18:43;77.57;;;38.83;;
53618;SDS011;68717;53.040;18.488;2024-03-08T00:18:56;76.78;;;38.30;;
53618;SDS011;68717;53.040;18.488;2024-03-08T00:19:09;76.28;;;38.47;;
53618;SDS011;68717;53.040;18.488;2024-03-08T00:19:22;75.00;;;38.85;;
53618;SDS011;68717;53.040;18.488;2024-03-08T00:19:35;75.00;;;39.10;;
53618;SDS011;68717;53.040;18.488;2024-03-08T00:19:50;74.28;;;39.72;;
53618;SDS011;68717;53.040;18.488;2024-03-08T00:20:03;76.20;;;39.72;;
53618;SDS011;68717;53.040;18.488;2024-03-08T00:20:20;76.93;;;39.00;;
53618;SDS011;68717;53.040;18.488;2024-03-08T00:20:33;75.20;;;38.60;;
53618;SDS011;68717;53.040;18.488;2024-03-08T00:20:46;76.38;;;39.00;;
53618;SDS011;68717;53.040;18.488;2024-03-08T00:21:00;74.38;;;39.17;;
53618;SDS011;68717;53.040;18.488;2024-03-08T00:21:13;73.38;;;38.58;;
53618;SDS011;68717;53.040;18.488;2024-03-08T00:21:27;75.60;;;38.78;;
53618;SDS011;68717;53.040;18.488;2024-03-08T00:21:40;73.63;;;38.78;;
53618;SDS011;68717;53.040;18.488;2024-03-08T00:21:55;73.25;;;38.70;;
53618;SDS011;68717;53.040;18.488;2024-03-08T00:22:08;74.68;;;38.83;;
53618;SDS011;68717;53.040;18.488;2024-03-08T00:22:21;76.15;;;39.10;;
53618;SDS011;68717;53.040;18.488;2024-03-08T00:22:34;74.20;;;38.83;;
53618;SDS011;68717;53.040;18.488;2024-03-08T00:22:48;74.53;;;38.95;;
53618;SDS011;68717;53.040;18.488;2024-03-08T00:23:01;79.18;;;39.40;;
53618;SDS011;68717;53.040;18.488;2024-03-08T00:23:14;79.22;;;39.75;;
53618;SDS011;68717;53.040;18.488;2024-03-08T00:23:28;75.47;;;39.15;;
53618;SDS011;68717;53.040;18.488;2024-03-08T00:23:42;75.95;;;38.95;;
53618;SDS011;68717;53.040;18.488;2024-03-08T00:23:55;75.45;;;39.47;;
53618;SDS011;68717;53.040;18.488;2024-03-08T00:24:08;73.38;;;38.70;;
53618;SDS011;68717;53.040;18.488;2024-03-08T00:24:21;74.22;;;38.85;;
53618;SDS011;68717;53.040;18.488;2024-03-08T00:24:37;77.35;;;39.53;;
53618;SDS011;68717;53.040;18.488;2024-03-08T00:24:50;76.07;;;39.10;;
53618;SDS011;68717;53.040;18.488;2024-03-08T00:25:03;75.78;;;39.50;;
53618;SDS011;68717;53.040;18.488;2024-03-08T00:25:18;74.65;;;39.47;;
53618;SDS011;68717;53.040;18.488;2024-03-08T00:25:31;72.80;;;39.15;;
53618;SDS011;68717;53.040;18.488;2024-03-08T00:25:46;73.35;;;38.97;;
53618;SDS011;68717;53.040;18.488;2024-03-08T00:25:59;75.03;;;38.55;;
53618;SDS011;68717;53.040;18.488;2024-03-08T00:26:16;75.00;;;38.05;;
53618;SDS011;68717;53.040;18.488;2024-03-08T00:26:29;73.53;;;37.10;;
53618;SDS011;68717;53.040;18.488;2024-03-08T00:26:42;72.00;;;36.20;;
53618;SDS011;68717;53.040;18.488;2024-03-08T00:26:56;71.15;;;36.33;;
53618;SDS011;68717;53.040;18.488;2024-03-08T00:27:09;69.80;;;36.33;;
53618;SDS011;68717;53.040;18.488;2024-03-08T00:27:22;67.55;;;35.53;;
53618;SDS011;68717;53.040;18.488;2024-03-08T00:27:35;65.68;;;35.03;;
53618;SDS011;68717;53.040;18.488;2024-03-08T00:27:49;65.53;;;35.35;;
53618;SDS011;68717;53.040;18.488;2024-03-08T00:28:03;68.47;;;36.08;;
53618;SDS011;68717;53.040;18.488;2024-03-08T00:28:17;70.82;;;36.85;;
53618;SDS011;68717;53.040;18.488;2024-03-08T00:28:31;70.70;;;36.65;;
53618;SDS011;68717;53.040;18.488;2024-03-08T00:28:44;70.97;;;35.95;;
53618;SDS011;68717;53.040;18.488;2024-03-08T00:28:57;71.43;;;35.67;;
53618;SDS011;68717;53.040;18.488;2024-03-08T00:29:10;70.85;;;35.03;;
53618;SDS011;68717;53.040;18.488;2024-03-08T00:29:25;68.28;;;34.92;;
53618;SDS011;68717;53.040;18.488;2024-03-08T00:29:39;67.90;;;35.42;;
53618;SDS011;68717;53.040;18.488;2024-03-08T00:29:53;65.88;;;35.30;;
53618;SDS011;68717;53.040;18.488;2024-03-08T00:30:06;66.00;;;34.95;;
53618;SDS011;68717;53.040;18.488;2024-03-08T00:30:20;68.80;;;35.30;;
53618;SDS011;68717;53.040;18.488;2024-03-08T00:30:35;71.40;;;36.03;;
53618;SDS011;68717;53.040;18.488;2024-03-08T00:30:51;70.43;;;35.92;;
53618;SDS011;68717;53.040;18.488;2024-03-08T00:31:04;69.50;;;35.67;;
53618;SDS011;68717;53.040;18.488;2024-03-08T00:31:22;71.00;;;35.35;;
53618;SDS011;68717;53.040;18.488;2024-03-08T00:31:35;72.35;;;35.92;;
53618;SDS011;68717;53.040;18.488;2024-03-08T00:31:49;74.93;;;37.63;;
53618;SDS011;68717;53.040;18.488;2024-03-08T00:32:02;74.10;;;37.67;;
53618;SDS011;68717;53.040;18.488;2024-03-08T00:32:15;70.75;;;36.53;;
53618;SDS011;68717;53.040;18.488;2024-03-08T00:32:29;70.60;;;36.60;;
53618;SDS011;68717;53.040;18.488;2024-03-08T00:32:44;70.53;;;36.33;;
53618;SDS011;68717;53.040;18.488;2024-03-08T00:32:57;68.47;;;35.92;;
53618;SDS011;68717;53.040;18.488;2024-03-08T00:33:12;70.90;;;37.08;;
53618;SDS011;68717;53.040;18.488;2024-03-08T00:33:25;73.03;;;37.65;;
53618;SDS011;68717;53.040;18.488;2024-03-08T00:33:39;69.90;;;37.45;;
53618;SDS011;68717;53.040;18.488;2024-03-08T00:33:53;69.70;;;37.53;;
53618;SDS011;68717;53.040;18.488;2024-03-08T00:34:06;72.57;;;37.67;;
53618;SDS011;68717;53.040;18.488;2024-03-08T00:34:19;74.80;;;37.65;;
53618;SDS011;68717;53.040;18.488;2024-03-08T00:34:32;76.38;;;38.08;;
53618;SDS011;68717;53.040;18.488;2024-03-08T00:34:48;74.20;;;37.88;;
53618;SDS011;68717;53.040;18.488;2024-03-08T00:35:04;71.88;;;37.83;;
53618;SDS011;68717;53.040;18.488;2024-03-08T00:35:20;72.40;;;38.53;;
53618;SDS011;68717;53.040;18.488;2024-03-08T00:35:33;75.05;;;38.30;;
53618;SDS011;68717;53.040;18.488;2024-03-08T00:35:46;78.25;;;38.28;;
53618;SDS011;68717;53.040;18.488;2024-03-08T00:36:00;75.28;;;38.17;;
53618;SDS011;68717;53.040;18.488;2024-03-08T00:36:13;73.70;;;38.30;;
53618;SDS011;68717;53.040;18.488;2024-03-08T00:36:27;75.35;;;37.97;;
53618;SDS011;68717;53.040;18.488;2024-03-08T00:36:42;74.90;;;37.67;;
53618;SDS011;68717;53.040;18.488;2024-03-08T00:36:56;73.78;;;37.60;;
53618;SDS011;68717;53.040;18.488;2024-03-08T00:37:09;73.43;;;37.42;;
53618;SDS011;68717;53.040;18.488;2024-03-08T00:37:23;74.53;;;37.80;;
53618;SDS011;68717;53.040;18.488;2024-03-08T00:37:37;76.50;;;38.67;;
53618;SDS011;68717;53.040;18.488;2024-03-08T00:37:50;75.47;;;38.45;;
53618;SDS011;68717;53.040;18.488;2024-03-08T00:38:03;74.25;;;38.42;;
53618;SDS011;68717;53.040;18.488;2024-03-08T00:38:16;74.10;;;38.17;;
53618;SDS011;68717;53.040;18.488;2024-03-08T00:38:31;76.97;;;38.38;;
53618;SDS011;68717;53.040;18.488;2024-03-08T00:38:44;78.20;;;39.25;;
53618;SDS011;68717;53.040;18.488;2024-03-08T00:38:57;80.25;;;39.70;;
53618;SDS011;68717;53.040;18.488;2024-03-08T00:39:13;81.43;;;40.95;;
53618;SDS011;68717;53.040;18.488;2024-03-08T00:39:26;78.60;;;40.83;;
53618;SDS011;68717;53.040;18.488;2024-03-08T00:39:39;77.60;;;40.03;;
53618;SDS011;68717;53.040;18.488;2024-03-08T00:39:52;81.07;;;40.10;;
53618;SDS011;68717;53.040;18.488;2024-03-08T00:40:06;83.95;;;40.90;;
53618;SDS011;68717;53.040;18.488;2024-03-08T00:40:22;85.05;;;41.13;;
53618;SDS011;68717;53.040;18.488;2024-03-08T00:40:35;84.22;;;40.60;;
53618;SDS011;68717;53.040;18.488;2024-03-08T00:40:48;83.82;;;41.10;;
53618;SDS011;68717;53.040;18.488;2024-03-08T00:41:02;80.78;;;41.28;;
53618;SDS011;68717;53.040;18.488;2024-03-08T00:41:15;79.75;;;40.83;;
53618;SDS011;68717;53.040;18.488;2024-03-08T00:41:29;82.15;;;40.85;;
53618;SDS011;68717;53.040;18.488;2024-03-08T00:41:42;84.95;;;40.75;;
53618;SDS011;68717;53.040;18.488;2024-03-08T00:41:57;82.53;;;41.05;;
53618;SDS011;68717;53.040;18.488;2024-03-08T00:42:10;78.95;;;40.75;;
53618;SDS011;68717;53.040;18.488;2024-03-08T00:42:23;79.20;;;40.50;;
53618;SDS011;68717;53.040;18.488;2024-03-08T00:42:37;80.68;;;40.50;;
53618;SDS011;68717;53.040;18.488;2024-03-08T00:42:51;83.40;;;41.53;;
53618;SDS011;68717;53.040;18.488;2024-03-08T00:43:05;80.47;;;41.72;;
53618;SDS011;68717;53.040;18.488;2024-03-08T00:43:18;78.22;;;40.88;;
53618;SDS011;68717;53.040;18.488;2024-03-08T00:43:31;79.60;;;40.72;;
53618;SDS011;68717;53.040;18.488;2024-03-08T00:43:44;82.78;;;40.33;;
53618;SDS011;68717;53.040;18.488;2024-03-08T00:44:00;82.38;;;40.75;;
53618;SDS011;68717;53.040;18.488;2024-03-08T00:44:13;83.10;;;41.20;;
53618;SDS011;68717;53.040;18.488;2024-03-08T00:44:26;82.88;;;41.03;;
53618;SDS011;68717;53.040;18.488;2024-03-08T00:44:39;82.10;;;41.05;;
53618;SDS011;68717;53.040;18.488;2024-03-08T00:44:52;80.28;;;40.72;;
53618;SDS011;68717;53.040;18.488;2024-03-08T00:45:05;79.18;;;40.15;;
53618;SDS011;68717;53.040;18.488;2024-03-08T00:45:20;78.53;;;39.95;;
53618;SDS011;68717;53.040;18.488;2024-03-08T00:45:34;81.28;;;40.88;;
53618;SDS011;68717;53.040;18.488;2024-03-08T00:45:47;83.22;;;41.33;;
53618;SDS011;68717;53.040;18.488;2024-03-08T00:46:02;83.72;;;41.30;;
53618;SDS011;68717;53.040;18.488;2024-03-08T00:46:15;85.90;;;41.15;;
53618;SDS011;68717;53.040;18.488;2024-03-08T00:46:29;87.20;;;42.00;;
53618;SDS011;68717;53.040;18.488;2024-03-08T00:46:44;86.00;;;41.70;;
53618;SDS011;68717;53.040;18.488;2024-03-08T00:46:57;86.38;;;41.50;;
53618;SDS011;68717;53.040;18.488;2024-03-08T00:47:11;83.47;;;41.63;;
53618;SDS011;68717;53.040;18.488;2024-03-08T00:47:24;82.38;;;41.85;;
53618;SDS011;68717;53.040;18.488;2024-03-08T00:47:39;82.70;;;41.22;;
53618;SDS011;68717;53.040;18.488;2024-03-08T00:47:52;80.88;;;41.28;;
53618;SDS011;68717;53.040;18.488;2024-03-08T00:48:06;80.03;;;41.25;;
53618;SDS011;68717;53.040;18.488;2024-03-08T00:48:20;81.30;;;41.03;;
53618;SDS011;68717;53.040;18.488;2024-03-08T00:48:33;84.20;;;41.67;;
53618;SDS011;68717;53.040;18.488;2024-03-08T00:48:46;84.47;;;41.38;;
53618;SDS011;68717;53.040;18.488;2024-03-08T00:48:59;83.22;;;41.00;;
53618;SDS011;68717;53.040;18.488;2024-03-08T00:49:13;84.45;;;41.58;;
53618;SDS011;68717;53.040;18.488;2024-03-08T00:49:27;83.15;;;42.13;;
53618;SDS011;68717;53.040;18.488;2024-03-08T00:49:41;84.00;;;41.88;;
53618;SDS011;68717;53.040;18.488;2024-03-08T00:49:54;85.05;;;41.50;;
53618;SDS011;68717;53.040;18.488;2024-03-08T00:50:09;83.22;;;41.17;;
53618;SDS011;68717;53.040;18.488;2024-03-08T00:50:22;84.93;;;41.50;;
53618;SDS011;68717;53.040;18.488;2024-03-08T00:50:35;84.78;;;41.17;;
53618;SDS011;68717;53.040;18.488;2024-03-08T00:50:49;80.93;;;40.58;;
53618;SDS011;68717;53.040;18.488;2024-03-08T00:51:03;77.28;;;40.13;;
53618;SDS011;68717;53.040;18.488;2024-03-08T00:51:16;81.03;;;40.50;;
53618;SDS011;68717;53.040;18.488;2024-03-08T00:51:30;82.10;;;41.05;;
53618;SDS011;68717;53.040;18.488;2024-03-08T00:51:43;81.90;;;41.15;;
53618;SDS011;68717;53.040;18.488;2024-03-08T00:51:56;80.30;;;40.55;;
53618;SDS011;68717;53.040;18.488;2024-03-08T00:52:09;78.78;;;40.72;;
53618;SDS011;68717;53.040;18.488;2024-03-08T00:52:23;82.20;;;41.13;;
53618;SDS011;68717;53.040;18.488;2024-03-08T00:52:36;82.50;;;41.00;;
53618;SDS011;68717;53.040;18.488;2024-03-08T00:52:49;82.63;;;41.22;;
53618;SDS011;68717;53.040;18.488;2024-03-08T00:53:03;81.28;;;40.63;;
53618;SDS011;68717;53.040;18.488;2024-03-08T00:53:17;80.18;;;40.40;;
53618;SDS011;68717;53.040;18.488;2024-03-08T00:53:30;80.32;;;40.50;;
53618;SDS011;68717;53.040;18.488;2024-03-08T00:53:43;83.50;;;41.15;;
53618;SDS011;68717;53.040;18.488;2024-03-08T00:53:56;81.07;;;41.40;;
53618;SDS011;68717;53.040;18.488;2024-03-08T00:54:09;79.65;;;40.92;;
53618;SDS011;68717;53.040;18.488;2024-03-08T00:54:22;80.13;;;40.70;;
53618;SDS011;68717;53.040;18.488;2024-03-08T00:54:35;80.40;;;40.97;;
53618;SDS011;68717;53.040;18.488;2024-03-08T00:54:48;82.47;;;41.63;;
53618;SDS011;68717;53.040;18.488;2024-03-08T00:55:02;81.35;;;40.80;;
53618;SDS011;68717;53.040;18.488;2024-03-08T00:55:16;81.40;;;40.42;;
53618;SDS011;68717;53.040;18.488;2024-03-08T00:55:30;83.97;;;40.83;;
53618;SDS011;68717;53.040;18.488;2024-03-08T00:55:42;83.90;;;41.03;;
53618;SDS011;68717;53.040;18.488;2024-03-08T00:55:58;79.45;;;40.85;;
53618;SDS011;68717;53.040;18.488;2024-03-08T00:56:11;77.80;;;40.03;;
53618;SDS011;68717;53.040;18.488;2024-03-08T00:56:24;78.40;;;39.53;;
53618;SDS011;68717;53.040;18.488;2024-03-08T00:56:37;77.78;;;39.33;;
53618;SDS011;68717;53.040;18.488;2024-03-08T00:56:51;74.60;;;38.97;;
53618;SDS011;68717;53.040;18.488;2024-03-08T00:57:05;78.55;;;39.45;;
53618;SDS011;68717;53.040;18.488;2024-03-08T00:57:19;82.18;;;40.05;;
53618;SDS011;68717;53.040;18.488;2024-03-08T00:57:33;81.68;;;39.95;;
53618;SDS011;68717;53.040;18.488;2024-03-08T00:57:47;80.95;;;40.42;;
53618;SDS011;68717;53.040;18.488;2024-03-08T00:58:00;79.43;;;40.90;;
53618;SDS011;68717;53.040;18.488;2024-03-08T00:58:13;79.65;;;40.53;;
53618;SDS011;68717;53.040;18.488;2024-03-08T00:58:27;78.63;;;40.00;;
53618;SDS011;68717;53.040;18.488;2024-03-08T00:58:42;78.00;;;40.05;;
53618;SDS011;68717;53.040;18.488;2024-03-08T00:58:55;75.68;;;39.33;;
53618;SDS011;68717;53.040;18.488;2024-03-08T00:59:08;74.75;;;39.55;;
53618;SDS011;68717;53.040;18.488;2024-03-08T00:59:22;75.22;;;40.10;;
53618;SDS011;68717;53.040;18.488;2024-03-08T00:59:35;75.80;;;39.50;;
53618;SDS011;68717;53.040;18.488;2024-03-08T00:59:50;73.63;;;38.78;;
53618;SDS011;68717;53.040;18.488;2024-03-08T01:00:04;73.57;;;38.67;;
53618;SDS011;68717;53.040;18.488;2024-03-08T01:00:20;76.03;;;38.17;;
53618;SDS011;68717;53.040;18.488;2024-03-08T01:00:34;76.15;;;38.63;;
53618;SDS011;68717;53.040;18.488;2024-03-08T01:00:48;78.15;;;38.97;;
53618;SDS011;68717;53.040;18.488;2024-03-08T01:01:02;77.25;;;38.67;;
53618;SDS011;68717;53.040;18.488;2024-03-08T01:01:18;73.43;;;38.47;;
53618;SDS011;68717;53.040;18.488;2024-03-08T01:01:31;75.57;;;39.47;;
53618;SDS011;68717;53.040;18.488;2024-03-08T01:01:44;77.65;;;39.80;;
53618;SDS011;68717;53.040;18.488;2024-03-08T01:01:57;79.35;;;39.85;;
53618;SDS011;68717;53.040;18.488;2024-03-08T01:02:11;81.97;;;40.13;;
53618;SDS011;68717;53.040;18.488;2024-03-08T01:02:24;79.97;;;39.72;;
53618;SDS011;68717;53.040;18.488;2024-03-08T01:02:38;79.85;;;39.28;;
53618;SDS011;68717;53.040;18.488;2024-03-08T01:02:52;77.75;;;38.95;;
53618;SDS011;68717;53.040;18.488;2024-03-08T01:03:05;77.60;;;39.17;;
53618;SDS011;68717;53.040;18.488;2024-03-08T01:03:19;79.05;;;39.03;;
53618;SDS011;68717;53.040;18.488;2024-03-08T01:03:32;80.65;;;39.42;;
53618;SDS011;68717;53.040;18.488;2024-03-08T01:03:46;76.97;;;39.00;;
53618;SDS011;68717;53.040;18.488;2024-03-08T01:04:01;74.65;;;38.42;;
53618;SDS011;68717;53.040;18.488;2024-03-08T01:04:14;75.18;;;37.97;;
53618;SDS011;68717;53.040;18.488;2024-03-08T01:04:27;76.20;;;38.35;;
53618;SDS011;68717;53.040;18.488;2024-03-08T01:04:41;75.53;;;38.50;;
53618;SDS011;68717;53.040;18.488;2024-03-08T01:04:55;77.43;;;38.80;;
53618;SDS011;68717;53.040;18.488;2024-03-08T01:05:08;77.50;;;39.03;;
53618;SDS011;68717;53.040;18.488;2024-03-08T01:05:22;79.63;;;39.33;;
53618;SDS011;68717;53.040;18.488;2024-03-08T01:05:36;81.30;;;39.38;;
53618;SDS011;68717;53.040;18.488;2024-03-08T01:05:50;78.53;;;39.88;;
53618;SDS011;68717;53.040;18.488;2024-03-08T01:06:04;79.10;;;40.17;;
53618;SDS011;68717;53.040;18.488;2024-03-08T01:06:17;82.47;;;40.17;;
53618;SDS011;68717;53.040;18.488;2024-03-08T01:06:30;82.45;;;40.28;;
53618;SDS011;68717;53.040;18.488;2024-03-08T01:06:44;81.85;;;40.60;;
53618;SDS011;68717;53.040;18.488;2024-03-08T01:06:59;78.70;;;39.72;;
53618;SDS011;68717;53.040;18.488;2024-03-08T01:07:12;77.03;;;39.28;;
53618;SDS011;68717;53.040;18.488;2024-03-08T01:07:26;79.70;;;40.20;;
53618;SDS011;68717;53.040;18.488;2024-03-08T01:07:39;78.25;;;40.33;;
53618;SDS011;68717;53.040;18.488;2024-03-08T01:07:52;76.60;;;40.42;;
53618;SDS011;68717;53.040;18.488;2024-03-08T01:08:06;76.95;;;39.97;;
53618;SDS011;68717;53.040;18.488;2024-03-08T01:08:20;76.10;;;39.70;;
53618;SDS011;68717;53.040;18.488;2024-03-08T01:08:33;78.18;;;39.80;;
53618;SDS011;68717;53.040;18.488;2024-03-08T01:08:46;81.03;;;39.05;;
53618;SDS011;68717;53.040;18.488;2024-03-08T01:08:59;79.53;;;39.58;;
53618;SDS011;68717;53.040;18.488;2024-03-08T01:09:13;78.47;;;39.72;;
53618;SDS011;68717;53.040;18.488;2024-03-08T01:09:26;77.50;;;39.15;;
53618;SDS011;68717;53.040;18.488;2024-03-08T01:09:40;77.18;;;39.10;;
53618;SDS011;68717;53.040;18.488;2024-03-08T01:09:53;75.72;;;39.05;;
53618;SDS011;68717;53.040;18.488;2024-03-08T01:10:06;73.78;;;38.97;;
53618;SDS011;68717;53.040;18.488;2024-03-08T01:10:22;74.07;;;39.33;;
53618;SDS011;68717;53.040;18.488;2024-03-08T01:10:36;78.50;;;39.40;;
53618;SDS011;68717;53.040;18.488;2024-03-08T01:10:49;78.60;;;39.53;;
53618;SDS011;68717;53.040;18.488;2024-03-08T01:11:03;79.55;;;39.85;;
53618;SDS011;68717;53.040;18.488;2024-03-08T01:11:17;79.18;;;39.72;;
53618;SDS011;68717;53.040;18.488;2024-03-08T01:11:30;77.35;;;39.70;;
53618;SDS011;68717;53.040;18.488;2024-03-08T01:11:43;78.30;;;39.70;;
53618;SDS011;68717;53.040;18.488;2024-03-08T01:11:57;78.25;;;39.90;;
53618;SDS011;68717;53.040;18.488;2024-03-08T01:12:10;81.85;;;40.80;;
53618;SDS011;68717;53.040;18.488;2024-03-08T01:12:24;82.22;;;40.20;;
53618;SDS011;68717;53.040;18.488;2024-03-08T01:12:37;82.20;;;39.97;;
53618;SDS011;68717;53.040;18.488;2024-03-08T01:12:50;85.60;;;41.25;;
53618;SDS011;68717;53.040;18.488;2024-03-08T01:13:04;86.72;;;42.33;;
53618;SDS011;68717;53.040;18.488;2024-03-08T01:13:17;83.85;;;42.05;;
53618;SDS011;68717;53.040;18.488;2024-03-08T01:13:31;82.30;;;41.10;;
53618;SDS011;68717;53.040;18.488;2024-03-08T01:13:44;80.30;;;40.75;;
53618;SDS011;68717;53.040;18.488;2024-03-08T01:13:59;81.05;;;41.22;;
53618;SDS011;68717;53.040;18.488;2024-03-08T01:14:12;81.78;;;41.20;;
53618;SDS011;68717;53.040;18.488;2024-03-08T01:14:25;77.70;;;40.53;;
53618;SDS011;68717;53.040;18.488;2024-03-08T01:14:38;76.57;;;39.95;;
53618;SDS011;68717;53.040;18.488;2024-03-08T01:14:52;78.70;;;39.97;;
53618;SDS011;68717;53.040;18.488;2024-03-08T01:15:06;85.57;;;40.63;;
53618;SDS011;68717;53.040;18.488;2024-03-08T01:15:19;87.22;;;41.15;;
53618;SDS011;68717;53.040;18.488;2024-03-08T01:15:33;84.13;;;40.40;;
53618;SDS011;68717;53.040;18.488;2024-03-08T01:15:46;85.30;;;39.60;;
53618;SDS011;68717;53.040;18.488;2024-03-08T01:15:59;83.55;;;39.63;;
53618;SDS011;68717;53.040;18.488;2024-03-08T01:16:13;82.40;;;40.95;;
53618;SDS011;68717;53.040;18.488;2024-03-08T01:16:28;82.07;;;40.67;;
53618;SDS011;68717;53.040;18.488;2024-03-08T01:16:41;77.10;;;39.45;;
53618;SDS011;68717;53.040;18.488;2024-03-08T01:16:54;75.75;;;39.17;;
53618;SDS011;68717;53.040;18.488;2024-03-08T01:17:08;79.13;;;39.72;;
53618;SDS011;68717;53.040;18.488;2024-03-08T01:17:22;84.70;;;41.08;;
53618;SDS011;68717;53.040;18.488;2024-03-08T01:17:35;87.53;;;41.47;;
53618;SDS011;68717;53.040;18.488;2024-03-08T01:17:48;85.30;;;40.55;;
53618;SDS011;68717;53.040;18.488;2024-03-08T01:18:02;80.80;;;39.85;;
53618;SDS011;68717;53.040;18.488;2024-03-08T01:18:16;82.10;;;40.25;;
53618;SDS011;68717;53.040;18.488;2024-03-08T01:18:29;81.28;;;39.95;;
53618;SDS011;68717;53.040;18.488;2024-03-08T01:18:42;79.53;;;40.45;;
53618;SDS011;68717;53.040;18.488;2024-03-08T01:18:56;79.90;;;40.60;;
53618;SDS011;68717;53.040;18.488;2024-03-08T01:19:10;82.15;;;40.55;;
53618;SDS011;68717;53.040;18.488;2024-03-08T01:19:23;79.80;;;40.20;;
53618;SDS011;68717;53.040;18.488;2024-03-08T01:19:37;78.15;;;40.13;;
53618;SDS011;68717;53.040;18.488;2024-03-08T01:19:50;79.43;;;40.38;;
53618;SDS011;68717;53.040;18.488;2024-03-08T01:20:03;80.35;;;40.15;;
53618;SDS011;68717;53.040;18.488;2024-03-08T01:20:16;77.22;;;39.42;;
53618;SDS011;68717;53.040;18.488;2024-03-08T01:20:30;77.68;;;38.78;;
53618;SDS011;68717;53.040;18.488;2024-03-08T01:20:43;80.40;;;39.00;;
53618;SDS011;68717;53.040;18.488;2024-03-08T01:20:56;77.03;;;38.35;;
53618;SDS011;68717;53.040;18.488;2024-03-08T01:21:10;73.22;;;38.15;;